Time;durP1;ratioP1;P1;durP2;ratioP2;P2;SDS_P1;SDS_P2;PMS_P1;PMS_P2;Temp;Humidity;BMP_temperature;BMP_pressure;BME280_temperature;BME280_humidity;BME280_pressure;Samples;Min_cycle;Max_cycle;Signal;HPM_P1;HPM_P2
2023/04/20 00:00:33;;;;;;;4.55;2.28;;;;;;;6.23;nan;102437.31;4971716;28;20035;-40
2023/04/20 00:02:59;;;;;;;4.57;2.30;;;;;;;6.10;nan;102428.44;4972891;28;20034;-45
2023/04/20 00:05:24;;;;;;;5.93;2.40;;;;;;;6.20;nan;102429.44;4972892;28;20105;-42
2023/04/20 00:07:50;;;;;;;4.13;2.05;;;;;;;6.08;nan;102411.88;4972878;28;20075;-41
2023/04/20 00:10:15;;;;;;;5.40;2.33;;;;;;;6.13;nan;102423.25;4976417;28;20113;-46
2023/04/20 00:12:41;;;;;;;3.90;2.58;;;;;;;6.06;nan;102418.84;4976544;28;20457;-44
2023/04/20 00:15:07;;;;;;;3.10;2.15;;;;;;;6.01;nan;102406.56;4975845;28;20043;-41
2023/04/20 00:17:32;;;;;;;4.10;2.17;;;;;;;5.66;nan;102349.50;4976388;28;20122;-41
2023/04/20 00:19:58;;;;;;;5.45;2.47;;;;;;;6.03;nan;102405.72;4959311;28;20093;-45
2023/04/20 00:22:25;;;;;;;3.45;2.13;;;;;;;5.61;nan;102335.53;4975553;28;20486;-46
2023/04/20 00:24:50;;;;;;;5.03;1.95;;;;;;;5.91;nan;102386.41;4959410;28;20093;-42
2023/04/20 00:27:16;;;;;;;4.93;2.40;;;;;;;5.68;nan;102332.13;4995912;28;20490;-41
2023/04/20 00:29:42;;;;;;;4.97;2.10;;;;;;;6.05;nan;102403.13;4995904;28;20030;-43
2023/04/20 00:32:07;;;;;;;5.75;2.05;;;;;;;6.05;nan;102410.97;4994737;28;20042;-42
2023/04/20 00:34:32;;;;;;;4.25;2.30;;;;;;;5.84;nan;102393.25;4995595;28;20049;-43
2023/04/20 00:36:58;;;;;;;4.50;2.05;;;;;;;5.23;nan;102281.97;4995186;28;20045;-40
2023/04/20 00:39:23;;;;;;;2.10;1.90;;;;;;;5.52;nan;102337.13;4995714;28;20041;-44
2023/04/20 00:41:48;;;;;;;3.70;2.10;;;;;;;5.80;nan;102394.09;4995644;28;20483;-44
2023/04/20 00:44:14;;;;;;;6.85;1.92;;;;;;;5.84;nan;102398.47;4978242;28;20042;-43
2023/04/20 00:46:40;;;;;;;2.80;1.92;;;;;;;5.84;nan;102414.16;4995609;28;20041;-44
2023/04/20 00:49:06;;;;;;;5.75;2.60;;;;;;;5.75;nan;102390.53;4994392;28;20397;-44
2023/04/20 00:51:32;;;;;;;10.20;2.67;;;;;;;5.75;nan;102387.91;4978056;28;20038;-40
2023/04/20 00:53:58;;;;;;;5.05;2.25;;;;;;;5.29;nan;102323.81;4977998;28;20030;-43
2023/04/20 00:56:23;;;;;;;4.45;3.00;;;;;;;5.60;nan;102388.63;4995373;28;20104;-41
2023/04/20 00:58:49;;;;;;;8.10;2.58;;;;;;;5.56;nan;102383.34;4995385;28;20042;-41
2023/04/20 01:01:16;;;;;;;2.38;1.88;;;;;;;5.06;nan;102310.47;4995044;28;20040;-39
2023/04/20 01:03:42;;;;;;;3.47;2.22;;;;;;;5.37;nan;102363.09;4977222;28;20366;-41
2023/04/20 01:06:08;;;;;;;4.88;2.17;;;;;;;5.30;nan;102349.06;4977768;28;20042;-41
2023/04/20 01:08:33;;;;;;;5.60;2.30;;;;;;;5.41;nan;102373.59;4995363;28;20423;-43
2023/04/20 01:10:58;;;;;;;2.47;1.90;;;;;;;5.38;nan;102370.94;4994922;28;20045;-40
2023/04/20 01:13:24;;;;;;;2.90;1.85;;;;;;;5.42;nan;102364.03;4977576;28;20074;-39
2023/04/20 01:15:49;;;;;;;3.65;2.47;;;;;;;5.38;nan;102368.31;4995100;28;20392;-43
2023/04/20 01:18:17;;;;;;;3.28;1.95;;;;;;;5.40;nan;102358.75;4994742;28;20074;-41
2023/04/20 01:20:43;;;;;;;4.38;2.25;;;;;;;5.35;nan;102344.78;4975704;28;20389;-42
2023/04/20 01:23:09;;;;;;;4.32;2.60;;;;;;;5.32;nan;102349.06;4995039;28;20038;-46
2023/04/20 01:25:37;;;;;;;2.42;2.20;;;;;;;5.25;nan;102335.09;4988763;28;20380;-43
2023/04/20 01:28:03;;;;;;;2.78;2.25;;;;;;;4.87;nan;102281.50;4975472;28;20090;-44
2023/04/20 01:30:30;;;;;;;2.92;2.50;;;;;;;4.75;nan;102269.16;4975188;28;20041;-41
2023/04/20 01:32:55;;;;;;;3.85;2.67;;;;;;;5.06;nan;102326.13;4958011;28;20039;-42
2023/04/20 01:35:20;;;;;;;3.75;2.13;;;;;;;5.00;nan;102320.81;4975483;28;20042;-46
2023/04/20 01:37:46;;;;;;;3.40;2.58;;;;;;;4.96;nan;102318.16;4974246;28;20043;-46
2023/04/20 01:40:12;;;;;;;2.58;2.15;;;;;;;4.53;nan;102243.59;4957787;28;20030;-42
2023/04/20 01:42:37;;;;;;;2.70;2.35;;;;;;;4.78;nan;102299.63;4957890;28;20050;-43
2023/04/20 01:45:06;;;;;;;4.32;2.35;;;;;;;4.76;nan;102299.59;4975067;28;20039;-44
2023/04/20 01:47:32;;;;;;;3.25;2.53;;;;;;;4.71;nan;102295.16;4957487;28;20086;-41
2023/04/20 01:49:58;;;;;;;2.42;2.22;;;;;;;4.31;nan;102220.69;4974715;28;20042;-43
2023/04/20 01:52:23;;;;;;;3.97;3.00;;;;;;;4.73;nan;102276.06;4973985;28;20066;-46
2023/04/20 01:54:48;;;;;;;4.18;3.05;;;;;;;4.86;nan;102272.78;4974665;28;20046;-40
2023/04/20 01:57:14;;;;;;;5.93;3.15;;;;;;;4.71;nan;102243.00;4975005;28;20038;-41
2023/04/20 01:59:39;;;;;;;3.38;2.72;;;;;;;4.84;nan;102256.25;4974772;28;20038;-44
2023/04/20 02:02:05;;;;;;;3.60;3.25;;;;;;;4.95;nan;102277.25;4973708;28;20046;-43
2023/04/20 02:04:30;;;;;;;5.82;3.60;;;;;;;4.81;nan;102237.94;4974555;28;20054;-41
2023/04/20 02:06:56;;;;;;;7.13;3.50;;;;;;;5.00;nan;102258.19;4957285;28;20038;-41
2023/04/20 02:09:21;;;;;;;6.15;3.72;;;;;;;4.98;nan;102249.47;4973711;28;20034;-42
2023/04/20 02:11:46;;;;;;;6.15;3.25;;;;;;;5.23;nan;102261.06;4973274;28;20066;-43
2023/04/20 02:14:11;;;;;;;7.53;3.00;;;;;;;4.73;nan;102171.72;4974526;28;20042;-43
2023/04/20 02:16:37;;;;;;;5.93;3.38;;;;;;;4.95;nan;102188.53;4974313;28;20157;-42
2023/04/20 02:19:02;;;;;;;6.00;3.55;;;;;;;5.42;nan;102257.84;4974264;28;20043;-43
2023/04/20 02:21:27;;;;;;;4.38;3.80;;;;;;;5.01;nan;102167.72;4957140;28;20035;-45
2023/04/20 02:23:53;;;;;;;5.32;3.95;;;;;;;5.46;nan;102227.38;4974593;28;20042;-42
2023/04/20 02:26:18;;;;;;;4.63;3.97;;;;;;;5.55;nan;102245.75;4973381;28;20085;-41
2023/04/20 02:28:44;;;;;;;8.02;4.38;;;;;;;5.14;nan;102167.00;4974526;28;20459;-41
2023/04/20 02:31:09;;;;;;;6.65;3.92;;;;;;;5.21;nan;102184.50;4974037;28;20031;-42
2023/04/20 02:33:35;;;;;;;6.65;4.30;;;;;;;5.16;nan;102164.41;4974010;28;20042;-42
2023/04/20 02:36:00;;;;;;;7.38;4.68;;;;;;;5.09;nan;102161.75;4972825;28;20166;-42
2023/04/20 02:38:26;;;;;;;8.32;4.88;;;;;;;5.52;nan;102225.72;4973039;28;20390;-41
2023/04/20 02:40:51;;;;;;;6.15;4.55;;;;;;;5.53;nan;102213.53;4974058;28;20070;-45
2023/04/20 02:43:16;;;;;;;6.60;4.57;;;;;;;5.25;nan;102162.78;4955561;28;20046;-41
2023/04/20 02:45:42;;;;;;;11.82;5.32;;;;;;;5.62;nan;102231.91;4974007;28;20089;-44
2023/04/20 02:48:07;;;;;;;4.50;4.05;;;;;;;5.66;nan;102221.50;4973766;28;20054;-44
2023/04/20 02:50:33;;;;;;;5.78;4.68;;;;;;;5.37;nan;102164.66;4973886;28;20057;-42
2023/04/20 02:52:59;;;;;;;9.05;4.00;;;;;;;5.73;nan;102219.81;4956527;28;20342;-44
2023/04/20 02:55:26;;;;;;;5.45;4.53;;;;;;;5.77;nan;102215.50;4972613;28;20061;-44
2023/04/20 02:57:51;;;;;;;5.65;4.25;;;;;;;5.82;nan;102214.69;4973894;28;20038;-40
2023/04/20 03:00:17;;;;;;;6.65;4.35;;;;;;;5.48;nan;102142.13;4973009;28;20045;-45
2023/04/20 03:02:42;;;;;;;5.95;4.25;;;;;;;5.50;nan;102162.16;4972372;28;20054;-42
2023/04/20 03:05:08;;;;;;;4.60;4.03;;;;;;;5.91;nan;102219.16;4973859;28;20058;-44
2023/04/20 03:07:33;;;;;;;7.88;4.32;;;;;;;6.01;nan;102205.31;4956585;28;20455;-46
2023/04/20 03:09:59;;;;;;;7.85;4.50;;;;;;;5.78;nan;102167.63;4956324;28;20031;-44
2023/04/20 03:12:25;;;;;;;4.70;3.53;;;;;;;6.08;nan;102191.41;4973560;28;20404;-43
2023/04/20 03:14:51;;;;;;;5.20;4.05;;;;;;;6.11;nan;102188.81;4972573;28;20043;-45
2023/04/20 03:17:16;;;;;;;7.65;4.30;;;;;;;6.26;nan;102195.91;4973280;28;20037;-44
2023/04/20 03:19:41;;;;;;;4.95;3.95;;;;;;;6.21;nan;102181.06;4973639;28;20038;-45
2023/04/20 03:22:07;;;;;;;6.95;3.75;;;;;;;6.30;nan;102189.84;4973302;28;20121;-41
2023/04/20 03:24:33;;;;;;;6.97;3.92;;;;;;;5.89;nan;102114.63;4973463;28;20158;-42
2023/04/20 03:26:58;;;;;;;5.20;3.40;;;;;;;6.24;nan;102185.44;4973263;28;20410;-42
2023/04/20 03:29:23;;;;;;;7.07;4.05;;;;;;;6.19;nan;102179.28;4973340;28;20114;-41
2023/04/20 03:31:49;;;;;;;5.60;3.45;;;;;;;6.15;nan;102174.91;4971269;28;20058;-43
2023/04/20 03:34:14;;;;;;;4.97;3.72;;;;;;;6.16;nan;102172.28;4973431;28;20075;-42
2023/04/20 03:36:39;;;;;;;6.40;4.40;;;;;;;5.75;nan;102095.31;4973146;28;20475;-42
2023/04/20 03:39:05;;;;;;;4.38;3.67;;;;;;;5.85;nan;102099.78;4955896;28;20042;-41
2023/04/20 03:41:31;;;;;;;4.72;3.92;;;;;;;5.26;nan;101980.91;4973241;28;20031;-41
2023/04/20 03:43:56;;;;;;;5.57;3.92;;;;;;;6.14;nan;102113.91;4973328;28;20386;-42
2023/04/20 03:46:21;;;;;;;5.07;3.88;;;;;;;6.48;nan;102153.34;4977046;28;20042;-46
2023/04/20 03:48:47;;;;;;;6.05;3.67;;;;;;;6.50;nan;102144.63;4958851;28;20125;-40
2023/04/20 03:51:12;;;;;;;8.48;3.72;;;;;;;6.63;nan;102163.84;4977462;28;20035;-41
2023/04/20 03:53:37;;;;;;;6.35;4.00;;;;;;;6.33;nan;102093.97;4959604;28;20035;-43
2023/04/20 03:56:03;;;;;;;7.28;3.90;;;;;;;6.34;nan;102074.78;4977161;28;20126;-40
2023/04/20 03:58:28;;;;;;;5.55;3.35;;;;;;;6.63;nan;102116.75;4976815;28;20376;-45
2023/04/20 04:01:00;;;;;;;6.43;3.45;;;;;;;6.72;nan;102142.97;4976652;28;20450;-40
2023/04/20 04:03:26;;;;;;;9.90;3.50;;;;;;;6.85;nan;102147.38;4976933;28;20030;-39
2023/04/20 04:05:51;;;;;;;4.97;3.35;;;;;;;6.90;nan;102136.91;4975897;28;20039;-43
2023/04/20 04:08:16;;;;;;;5.25;3.58;;;;;;;6.61;nan;102074.03;4976707;28;20130;-42
2023/04/20 04:10:42;;;;;;;6.30;3.20;;;;;;;6.96;nan;102134.31;4976675;28;20122;-42
2023/04/20 04:13:07;;;;;;;4.65;2.80;;;;;;;6.57;nan;102067.03;4976513;28;20035;-44
2023/04/20 04:15:32;;;;;;;4.40;3.22;;;;;;;6.99;nan;102131.72;4976446;28;20089;-39
2023/04/20 04:17:58;;;;;;;6.30;3.17;;;;;;;6.71;nan;102084.50;4976434;28;20085;-41
2023/04/20 04:20:23;;;;;;;5.30;3.05;;;;;;;6.68;nan;102062.72;4975893;28;20043;-43
2023/04/20 04:22:48;;;;;;;6.47;2.92;;;;;;;7.11;nan;102130.00;4976542;28;20074;-45
2023/04/20 04:25:13;;;;;;;4.00;2.72;;;;;;;6.71;nan;102065.34;4979343;28;20393;-41
2023/04/20 04:27:39;;;;;;;3.20;2.53;;;;;;;7.16;nan;102122.16;4978354;28;20040;-44
2023/04/20 04:30:06;;;;;;;6.03;2.13;;;;;;;7.16;nan;102115.19;4995762;28;20041;-41
2023/04/20 04:32:33;;;;;;;3.60;2.20;;;;;;;6.85;nan;102052.28;4978592;28;20106;-40
2023/04/20 04:34:59;;;;;;;3.97;2.50;;;;;;;7.27;nan;102130.91;4995563;28;20046;-41
2023/04/20 04:37:26;;;;;;;4.75;2.30;;;;;;;7.00;nan;102052.31;4994767;28;20044;-44
2023/04/20 04:39:51;;;;;;;4.90;2.45;;;;;;;7.40;nan;102110.84;4995753;28;20034;-43
2023/04/20 04:42:16;;;;;;;2.80;2.50;;;;;;;7.44;nan;102113.47;4995738;28;20045;-43
2023/04/20 04:44:42;;;;;;;4.50;2.65;;;;;;;7.46;nan;102101.25;4995812;28;20445;-45
2023/04/20 04:47:08;;;;;;;2.25;2.00;;;;;;;7.44;nan;102086.41;4995854;28;20038;-42
2023/04/20 04:49:34;;;;;;;3.78;2.10;;;;;;;7.26;nan;102048.88;4995251;28;20046;-43
2023/04/20 04:52:00;;;;;;;5.72;2.28;;;;;;;7.49;nan;102096.00;4994420;28;20046;-41
2023/04/20 04:54:25;;;;;;;3.85;2.10;;;;;;;7.51;nan;102075.91;4995031;28;20401;-44
2023/04/20 04:56:51;;;;;;;4.60;2.15;;;;;;;7.55;nan;102077.66;4994240;28;20120;-45
2023/04/20 04:59:16;;;;;;;3.78;2.30;;;;;;;7.23;nan;102013.94;4995274;28;20060;-45
2023/04/20 05:01:41;;;;;;;7.80;2.25;;;;;;;7.55;nan;102077.66;4977964;28;20129;-41
2023/04/20 05:04:06;;;;;;;2.55;1.98;;;;;;;7.54;nan;102072.41;4995407;28;20474;-40
2023/04/20 05:06:32;;;;;;;4.30;1.83;;;;;;;7.55;nan;102076.78;4995191;28;20131;-42
2023/04/20 05:08:57;;;;;;;4.25;2.13;;;;;;;7.14;nan;102001.72;4994264;28;20641;-41
2023/04/20 05:11:22;;;;;;;3.65;2.30;;;;;;;7.56;nan;102076.78;4995168;28;20070;-42
2023/04/20 05:13:48;;;;;;;4.80;1.90;;;;;;;7.16;nan;101992.09;4994860;28;20466;-44
2023/04/20 05:16:14;;;;;;;5.10;2.30;;;;;;;7.57;nan;102069.78;4995218;28;20041;-43
2023/04/20 05:18:39;;;;;;;3.17;2.13;;;;;;;7.61;nan;102053.22;4994791;28;20038;-43
2023/04/20 05:21:05;;;;;;;6.28;2.33;;;;;;;7.62;nan;102047.06;4994781;28;20035;-40
2023/04/20 05:23:30;;;;;;;17.60;2.78;;;;;;;7.51;nan;102036.63;4976675;28;20034;-43
2023/04/20 05:25:55;;;;;;;3.05;2.05;;;;;;;7.61;nan;102041.00;4989910;28;20610;-44
2023/04/20 05:28:21;;;;;;;8.05;2.15;;;;;;;7.66;nan;102043.59;4975091;28;20077;-41
2023/04/20 05:30:46;;;;;;;3.15;1.98;;;;;;;7.69;nan;102051.44;4942181;28;20109;-42
2023/04/20 05:33:11;;;;;;;3.30;2.10;;;;;;;7.37;nan;101988.59;4957716;28;20034;-42
2023/04/20 05:35:39;;;;;;;5.20;2.30;;;;;;;7.72;nan;102039.22;4957952;28;20045;-42
2023/04/20 05:38:05;;;;;;;5.53;2.47;;;;;;;7.74;nan;102039.19;4957617;28;20121;-44
2023/04/20 05:40:33;;;;;;;3.58;2.42;;;;;;;7.53;nan;101997.34;4974029;28;20106;-45
2023/04/20 05:42:58;;;;;;;4.88;2.13;;;;;;;7.78;nan;102035.72;4974783;28;20184;-42
2023/04/20 05:45:23;;;;;;;5.53;2.60;;;;;;;7.81;nan;102033.09;4975167;28;20105;-43
2023/04/20 05:47:55;;;;;;;8.38;2.42;;;;;;;7.83;nan;102026.06;4975440;28;20031;-42
2023/04/20 05:50:22;;;;;;;7.30;2.30;;;;;;;7.86;nan;102029.56;4974546;28;20035;-42
2023/04/20 05:52:47;;;;;;;3.25;1.92;;;;;;;7.55;nan;101985.97;4974488;28;20466;-44
2023/04/20 05:55:13;;;;;;;4.40;2.30;;;;;;;7.81;nan;102022.59;4957420;28;20065;-42
2023/04/20 05:57:41;;;;;;;4.72;2.28;;;;;;;7.87;nan;102022.59;4940460;28;20050;-45
2023/04/20 06:00:11;;;;;;;4.35;2.17;;;;;;;7.82;nan;102033.06;4974887;28;20085;-44
2023/04/20 06:02:37;;;;;;;7.07;2.73;;;;;;;7.58;nan;101992.94;4957496;28;20117;-46
2023/04/20 06:05:02;;;;;;;3.75;2.30;;;;;;;7.38;nan;101962.41;4974611;28;20444;-43
2023/04/20 06:07:27;;;;;;;11.23;3.60;;;;;;;7.44;nan;101977.25;4957019;28;20039;-39
2023/04/20 06:09:53;;;;;;;3.55;2.40;;;;;;;7.67;nan;102021.75;4975030;28;20041;-41
2023/04/20 06:12:18;;;;;;;3.90;2.63;;;;;;;7.78;nan;102039.22;4973447;28;20037;-42
2023/04/20 06:14:43;;;;;;;5.20;2.83;;;;;;;7.77;nan;102023.47;4974262;28;20046;-43
2023/04/20 06:17:09;;;;;;;6.13;2.83;;;;;;;7.30;nan;101940.59;4974324;28;20098;-40
2023/04/20 06:19:34;;;;;;;5.05;2.63;;;;;;;7.92;nan;102036.53;4974249;28;20038;-41
2023/04/20 06:22:00;;;;;;;4.72;2.35;;;;;;;7.94;nan;102043.53;4974259;28;20043;-38
2023/04/20 06:24:26;;;;;;;5.55;2.10;;;;;;;7.97;nan;102039.19;4974324;28;20071;-44
2023/04/20 06:26:52;;;;;;;6.53;2.22;;;;;;;8.03;nan;102041.75;4985916;28;20474;-41
2023/04/20 06:29:17;;;;;;;6.45;2.63;;;;;;;8.07;nan;102035.63;4993784;28;20034;-42
2023/04/20 06:31:42;;;;;;;4.88;2.33;;;;;;;8.07;nan;102036.50;4992901;28;20034;-39
2023/04/20 06:34:08;;;;;;;3.78;2.33;;;;;;;8.11;nan;102030.38;4993550;28;20404;-41
2023/04/20 06:36:33;;;;;;;5.30;2.78;;;;;;;7.80;nan;101968.41;4993439;28;20038;-43
2023/04/20 06:38:58;;;;;;;3.45;2.30;;;;;;;7.88;nan;101977.16;4993386;28;20034;-40
2023/04/20 06:41:24;;;;;;;8.13;2.83;;;;;;;7.92;nan;101963.13;4993276;28;20053;-42
2023/04/20 06:43:50;;;;;;;5.00;2.38;;;;;;;8.29;nan;102040.81;4993469;28;20096;-42
2023/04/20 06:46:15;;;;;;;6.93;2.72;;;;;;;8.27;nan;102037.34;4992523;28;20084;-40
2023/04/20 06:48:41;;;;;;;5.75;3.00;;;;;;;8.25;nan;102031.19;4975790;28;20491;-42
2023/04/20 06:51:06;;;;;;;6.22;2.55;;;;;;;8.27;nan;102025.94;4993165;28;20034;-39
2023/04/20 06:53:31;;;;;;;5.32;2.67;;;;;;;8.27;nan;102031.19;4975652;28;20080;-38
2023/04/20 06:55:57;;;;;;;3.35;2.97;;;;;;;7.99;nan;101975.34;4993498;28;20101;-43
2023/04/20 06:58:22;;;;;;;4.53;2.80;;;;;;;7.84;nan;101957.94;4993219;28;20034;-41
2023/04/20 07:00:47;;;;;;;7.22;3.70;;;;;;;8.02;nan;102016.44;4993180;28;20118;-38
2023/04/20 07:03:13;;;;;;;5.63;3.00;;;;;;;7.88;nan;102016.47;4993097;28;20030;-42
2023/04/20 07:05:38;;;;;;;3.95;3.08;;;;;;;7.80;nan;101999.88;4991926;28;20034;-40
2023/04/20 07:08:04;;;;;;;3.72;3.00;;;;;;;7.81;nan;101981.53;4992335;28;20032;-43
2023/04/20 07:10:29;;;;;;;6.18;3.35;;;;;;;7.90;nan;101989.38;4974598;28;20411;-41
2023/04/20 07:12:54;;;;;;;4.47;3.50;;;;;;;7.88;nan;101990.25;4975521;28;20045;-38
2023/04/20 07:15:20;;;;;;;4.75;3.17;;;;;;;7.43;nan;101945.81;4975470;28;20044;-42
2023/04/20 07:17:45;;;;;;;5.05;3.25;;;;;;;7.77;nan;102000.75;4992345;28;20114;-43
2023/04/20 07:20:11;;;;;;;6.20;3.72;;;;;;;7.76;nan;102006.03;4992363;28;20470;-42
2023/04/20 07:22:37;;;;;;;3.45;2.90;;;;;;;7.67;nan;101996.44;4974682;28;20034;-43
2023/04/20 07:25:04;;;;;;;5.32;3.60;;;;;;;7.73;nan;102004.28;4959018;28;20026;-43
2023/04/20 07:27:30;;;;;;;3.35;2.65;;;;;;;7.77;nan;102008.63;4987050;28;20058;-40
2023/04/20 07:29:57;;;;;;;5.18;3.47;;;;;;;7.82;nan;102021.72;4992765;28;20185;-41
2023/04/20 07:32:22;;;;;;;3.42;2.83;;;;;;;7.72;nan;102007.75;4991610;28;20478;-40
2023/04/20 07:34:47;;;;;;;5.90;2.83;;;;;;;7.40;nan;101945.81;4991344;28;20038;-43
2023/04/20 07:37:13;;;;;;;3.70;2.80;;;;;;;7.71;nan;102006.00;4992718;28;20026;-43
2023/04/20 07:39:38;;;;;;;3.15;2.70;;;;;;;7.77;nan;102018.22;4991752;28;20034;-40
2023/04/20 07:42:03;;;;;;;4.75;2.70;;;;;;;7.69;nan;102026.13;4992791;28;20427;-43
2023/04/20 07:44:29;;;;;;;3.65;2.92;;;;;;;7.38;nan;101965.91;4991511;28;20130;-41
2023/04/20 07:46:56;;;;;;;4.47;2.60;;;;;;;7.64;nan;102013.91;4992545;28;20049;-40
2023/04/20 07:49:22;;;;;;;11.02;3.42;;;;;;;7.21;nan;101953.69;4991238;28;20065;-40
2023/04/20 07:51:47;;;;;;;2.97;2.33;;;;;;;7.58;nan;102014.78;4992658;28;20536;-42
2023/04/20 07:54:12;;;;;;;10.45;3.53;;;;;;;7.50;nan;102027.00;4991540;28;20046;-44
2023/04/20 07:56:37;;;;;;;4.28;3.33;;;;;;;7.40;nan;102016.53;4992799;28;20442;-41
2023/04/20 07:59:03;;;;;;;5.93;3.20;;;;;;;7.28;nan;102022.66;4991887;28;20165;-40
2023/04/20 08:01:28;;;;;;;8.85;3.25;;;;;;;7.09;nan;102007.81;4992648;28;20076;-40
2023/04/20 08:03:54;;;;;;;5.55;2.97;;;;;;;6.99;nan;102009.56;4991310;28;20389;-42
2023/04/20 08:06:20;;;;;;;4.00;3.47;;;;;;;6.68;nan;101965.91;4992543;28;20041;-42
2023/04/20 08:08:45;;;;;;;5.30;3.80;;;;;;;6.82;nan;102008.66;4992340;28;20035;-41
2023/04/20 08:11:11;;;;;;;4.93;3.55;;;;;;;6.65;nan;101976.38;4992409;28;20113;-43
2023/04/20 08:13:36;;;;;;;8.48;3.90;;;;;;;6.42;nan;101938.84;4990357;28;20062;-44
2023/04/20 08:16:02;;;;;;;5.78;3.75;;;;;;;6.71;nan;102002.56;4992381;28;20034;-41
2023/04/20 08:18:29;;;;;;;9.27;4.43;;;;;;;6.71;nan;101982.47;4992546;28;20446;-44
2023/04/20 08:20:55;;;;;;;5.35;4.05;;;;;;;6.30;nan;101908.31;4991221;28;20049;-40
2023/04/20 08:23:26;;;;;;;7.18;4.10;;;;;;;6.52;nan;101971.97;4991106;28;20084;-42
2023/04/20 08:25:52;;;;;;;5.28;4.22;;;;;;;6.63;nan;101991.19;4991479;28;20038;-39
2023/04/20 08:28:17;;;;;;;6.10;3.92;;;;;;;6.64;nan;101980.72;4972771;28;20051;-39
2023/04/20 08:30:44;;;;;;;9.02;5.07;;;;;;;6.56;nan;101990.31;4974623;28;20045;-41
2023/04/20 08:33:10;;;;;;;5.68;3.65;;;;;;;6.15;nan;101921.34;4976563;28;20035;-41
2023/04/20 08:35:35;;;;;;;6.32;4.60;;;;;;;6.22;nan;101939.66;4959090;28;20034;-40
2023/04/20 08:38:01;;;;;;;7.53;4.85;;;;;;;6.45;nan;101972.84;4976431;28;20057;-41
2023/04/20 08:40:27;;;;;;;5.40;4.60;;;;;;;6.13;nan;101921.31;4976679;28;20050;-41
2023/04/20 08:42:52;;;;;;;7.68;4.75;;;;;;;6.49;nan;101980.69;4975313;28;20454;-43
2023/04/20 08:45:17;;;;;;;5.72;4.32;;;;;;;6.43;nan;101995.47;4976137;28;20054;-41
2023/04/20 08:47:44;;;;;;;7.45;4.70;;;;;;;6.13;nan;101947.47;4975741;28;20414;-40
2023/04/20 08:50:10;;;;;;;7.22;5.15;;;;;;;6.21;nan;101976.25;4958892;28;20031;-39
2023/04/20 08:52:37;;;;;;;5.30;4.35;;;;;;;6.35;nan;101963.22;4976073;28;20034;-42
2023/04/20 08:55:03;;;;;;;7.88;5.63;;;;;;;6.00;nan;101903.00;4976265;28;20045;-41
2023/04/20 08:57:28;;;;;;;9.18;6.35;;;;;;;6.45;nan;101962.38;4976221;28;20118;-42
2023/04/20 08:59:54;;;;;;;7.97;5.90;;;;;;;5.68;nan;101838.41;4976268;28;20070;-42
2023/04/20 09:02:20;;;;;;;8.88;6.05;;;;;;;5.93;nan;101877.69;4973723;28;20031;-44
2023/04/20 09:04:47;;;;;;;9.80;5.90;;;;;;;6.32;nan;101943.16;4976069;28;20042;-40
2023/04/20 09:07:18;;;;;;;7.47;5.65;;;;;;;6.33;nan;101941.44;4975759;28;20498;-41
2023/04/20 09:09:56;;;;;;;8.48;5.47;;;;;;;6.40;nan;101958.88;4975148;28;20126;-42
2023/04/20 09:12:23;;;;;;;7.82;5.72;;;;;;;6.25;nan;101898.72;4976062;28;20035;-40
2023/04/20 09:14:48;;;;;;;10.05;5.32;;;;;;;6.67;nan;101940.63;4975658;28;20038;-40
2023/04/20 09:17:16;;;;;;;6.10;5.53;;;;;;;6.86;nan;101957.22;4976079;28;20050;-42
2023/04/20 09:19:48;;;;;;;8.93;6.03;;;;;;;6.98;nan;101944.97;4958674;28;20085;-41
2023/04/20 09:22:14;;;;;;;9.40;4.65;;;;;;;6.56;nan;101884.81;4958534;28;20190;-41
2023/04/20 09:24:41;;;;;;;5.22;4.43;;;;;;;6.79;nan;101943.25;4974997;28;20118;-39
2023/04/20 09:27:17;;;;;;;7.45;4.70;;;;;;;6.82;nan;101945.88;4975770;28;20509;-39
2023/04/20 09:29:42;;;;;;;6.55;4.97;;;;;;;6.75;nan;101942.38;4975724;28;20035;-40
2023/04/20 09:32:07;;;;;;;8.00;5.00;;;;;;;6.41;nan;101876.94;4975269;28;20027;-39
2023/04/20 09:34:45;;;;;;;7.10;4.90;;;;;;;6.53;nan;101879.56;4975633;28;20054;-40
2023/04/20 09:37:14;;;;;;;7.55;4.63;;;;;;;6.77;nan;101921.44;4975399;28;20049;-41
2023/04/20 09:39:42;;;;;;;5.43;4.25;;;;;;;6.62;nan;101895.28;4973140;28;20117;-41
2023/04/20 09:42:10;;;;;;;5.97;4.03;;;;;;;7.02;nan;101931.03;4973214;28;20117;-40
2023/04/20 09:44:37;;;;;;;7.80;4.50;;;;;;;7.08;nan;101924.91;4975308;28;20034;-40
2023/04/20 09:47:03;;;;;;;6.00;4.50;;;;;;;7.16;nan;101925.78;4974561;28;20058;-44
2023/04/20 09:49:29;;;;;;;5.53;4.70;;;;;;;7.16;nan;101923.16;4975013;28;20062;-41
2023/04/20 09:51:54;;;;;;;7.68;4.60;;;;;;;6.93;nan;101899.63;4941880;28;20031;-40
2023/04/20 09:54:20;;;;;;;7.55;4.30;;;;;;;7.18;nan;101908.34;4975010;28;20035;-43
2023/04/20 09:56:45;;;;;;;6.43;4.60;;;;;;;7.17;nan;101920.53;4957955;28;20058;-41
2023/04/20 09:59:11;;;;;;;10.65;5.00;;;;;;;7.33;nan;101916.13;4973770;28;20485;-41
2023/04/20 10:01:37;;;;;;;4.88;3.63;;;;;;;7.38;nan;101887.34;4941980;28;20035;-40
2023/04/20 10:04:07;;;;;;;5.95;4.47;;;;;;;7.59;nan;101897.75;4973945;28;20089;-42
2023/04/20 10:06:33;;;;;;;5.82;5.10;;;;;;;7.50;nan;101841.00;4974881;28;20027;-42
2023/04/20 10:09:04;;;;;;;7.55;4.60;;;;;;;7.92;nan;101895.84;4974952;28;20038;-39
2023/04/20 10:11:37;;;;;;;5.43;4.45;;;;;;;7.95;nan;101902.81;4974856;28;20113;-40
2023/04/20 10:14:16;;;;;;;5.10;4.20;;;;;;;7.53;nan;101859.31;4974671;28;20117;-41
2023/04/20 10:16:57;;;;;;;6.13;5.20;;;;;;;7.94;nan;101916.81;4958043;28;20074;-42
2023/04/20 10:19:23;;;;;;;;;;;;;;;7.88;nan;101917.72;4976216;28;20042;-41
2023/04/20 10:21:49;;;;;;;5.45;4.25;;;;;;;7.52;nan;101847.13;4975334;28;19977;-41
2023/04/20 10:24:27;;;;;;;9.52;5.10;;;;;;;7.96;nan;101893.22;4972678;28;20069;-40
2023/04/20 10:26:53;;;;;;;7.00;4.13;;;;;;;7.58;nan;101786.84;4964456;28;20441;-42
2023/04/20 10:29:26;;;;;;;7.68;4.88;;;;;;;8.00;nan;101855.63;4976396;28;20038;-38
2023/04/20 10:31:52;;;;;;;5.35;4.60;;;;;;;7.90;nan;101832.09;4976455;28;20034;-40
2023/04/20 10:34:28;;;;;;;6.28;5.22;;;;;;;8.29;nan;101904.41;4976378;28;20026;-42
2023/04/20 10:36:54;;;;;;;6.40;4.85;;;;;;;8.05;nan;101854.72;4975188;28;20066;-40
2023/04/20 10:39:20;;;;;;;6.28;4.47;;;;;;;8.43;nan;101893.84;4993627;28;20066;-40
2023/04/20 10:41:53;;;;;;;7.30;5.05;;;;;;;8.21;nan;101900.06;4976536;28;20549;-40
2023/04/20 10:44:19;;;;;;;6.50;4.97;;;;;;;8.13;nan;101842.44;4976412;28;20069;-43
2023/04/20 10:46:49;;;;;;;5.28;4.68;;;;;;;8.53;nan;101903.38;4992801;28;20058;-39
2023/04/20 10:49:15;;;;;;;8.13;4.80;;;;;;;8.60;nan;101906.84;4960019;28;20038;-43
2023/04/20 10:51:50;;;;;;;7.72;5.05;;;;;;;8.73;nan;101911.09;4993633;28;20493;-40
2023/04/20 10:54:16;;;;;;;5.22;4.28;;;;;;;8.97;nan;101876.78;4993387;28;20030;-42
2023/04/20 10:56:44;;;;;;;5.55;4.88;;;;;;;9.00;nan;101876.75;4993606;28;20085;-42
2023/04/20 10:59:13;;;;;;;5.30;4.80;;;;;;;9.33;nan;101892.19;4993373;28;20026;-40
2023/04/20 11:01:40;;;;;;;4.63;4.22;;;;;;;9.01;nan;101846.97;4989469;28;20030;-38
2023/04/20 11:04:06;;;;;;;4.93;4.47;;;;;;;9.20;nan;101856.41;4975990;28;20027;-39
2023/04/20 11:06:32;;;;;;;5.20;4.70;;;;;;;10.04;nan;101883.41;4993285;28;20069;-40
2023/04/20 11:08:57;;;;;;;4.53;4.13;;;;;;;10.32;nan;101826.03;4993102;28;20061;-42
2023/04/20 11:11:26;;;;;;;6.00;3.92;;;;;;;11.60;nan;101872.00;4990476;28;20026;-43
2023/04/20 11:13:52;;;;;;;4.78;3.70;;;;;;;11.49;nan;101895.09;4962263;28;20033;-39
2023/04/20 11:16:18;;;;;;;6.60;3.95;;;;;;;11.77;nan;101794.31;4968706;28;20030;-44
2023/04/20 11:18:51;;;;;;;4.88;3.75;;;;;;;13.03;nan;101888.94;4972481;28;20379;-42
2023/04/20 11:21:17;;;;;;;4.85;4.13;;;;;;;12.51;nan;101804.88;4979968;28;20126;-42
2023/04/20 11:23:43;;;;;;;4.15;3.75;;;;;;;12.85;nan;101887.63;4987618;28;20405;-41
2023/04/20 11:26:09;;;;;;;4.25;3.90;;;;;;;12.12;nan;101827.81;4992777;28;20034;-44
2023/04/20 11:28:35;;;;;;;5.68;3.72;;;;;;;11.79;nan;101887.44;5010778;28;20143;-43
2023/04/20 11:31:01;;;;;;;4.32;3.92;;;;;;;11.62;nan;101863.16;5012423;28;20065;-40
2023/04/20 11:33:27;;;;;;;5.93;4.40;;;;;;;11.45;nan;101864.41;4979033;28;20030;-43
2023/04/20 11:35:54;;;;;;;5.18;4.65;;;;;;;11.28;nan;101838.38;4994979;28;20421;-42
2023/04/20 11:38:30;;;;;;;6.40;4.82;;;;;;;10.86;nan;101795.25;5012657;28;20034;-44
2023/04/20 11:40:57;;;;;;;5.35;4.85;;;;;;;10.61;nan;101768.50;4986265;28;20045;-40
2023/04/20 11:43:23;;;;;;;5.10;4.60;;;;;;;11.12;nan;101844.84;4975754;28;20116;-42